Time;durP1;ratioP1;P1;durP2;ratioP2;P2;SDS_P1;SDS_P2;PMS_P1;PMS_P2;Temp;Humidity;BMP_temperature;BMP_pressure;BME280_temperature;BME280_humidity;BME280_pressure;Samples;Min_cycle;Max_cycle;Signal;HPM_P1;HPM_P2
2022/06/14 00:02:00;;;;;;;2.05;1.70;;;17.60;92.20;;;;;;5072187;28;20032;-74
2022/06/14 00:04:27;;;;;;;2.72;1.92;;;17.70;91.60;;;;;;5064341;28;20395;-75
2022/06/14 00:06:55;;;;;;;2.83;1.77;;;17.90;90.90;;;;;;5064701;28;20141;-77
2022/06/14 00:09:23;;;;;;;5.43;1.73;;;18.20;90.70;;;;;;5066980;28;20398;-75
2022/06/14 00:11:50;;;;;;;2.15;1.80;;;18.50;91.10;;;;;;5080377;28;20048;-74
2022/06/14 00:14:19;;;;;;;2.05;1.48;;;18.70;90.20;;;;;;5078174;28;20142;-76
2022/06/14 00:16:46;;;;;;;4.38;2.15;;;18.70;90.50;;;;;;5069645;28;20035;-77
2022/06/14 00:19:13;;;;;;;2.25;1.50;;;18.80;89.90;;;;;;5066725;28;20048;-77
2022/06/14 00:21:41;;;;;;;3.75;1.70;;;18.80;90.20;;;;;;5081559;28;20107;-76
2022/06/14 00:24:08;;;;;;;3.25;1.30;;;19.00;88.30;;;;;;5072419;28;20040;-77
2022/06/14 00:26:35;;;;;;;3.72;1.50;;;18.70;89.80;;;;;;5058207;28;20075;-76
2022/06/14 00:29:03;;;;;;;3.17;1.92;;;18.40;90.10;;;;;;5066567;28;20203;-76
2022/06/14 00:31:31;;;;;;;2.10;1.45;;;18.00;90.70;;;;;;5070248;28;20446;-78
2022/06/14 00:33:58;;;;;;;3.25;1.92;;;18.10;91.10;;;;;;5083121;28;20024;-76
2022/06/14 00:36:32;;;;;;;2.78;2.15;;;18.60;90.30;;;;;;5084304;28;20466;-79
2022/06/14 00:39:10;;;;;;;2.72;2.22;;;19.40;89.20;;;;;;5077599;28;20070;-79
2022/06/14 00:41:46;;;;;;;4.75;2.38;;;19.60;88.40;;;;;;5054543;28;20033;-76
2022/06/14 00:44:17;;;;;;;3.33;2.22;;;20.20;86.40;;;;;;5078458;28;20103;-74
2022/06/14 00:47:14;;;;;;;3.38;3.03;;;20.10;86.70;;;;;;5055514;28;20108;-76
2022/06/14 00:49:52;;;;;;;5.25;2.70;;;20.30;86.40;;;;;;5086173;28;20561;-74
2022/06/14 00:52:19;;;;;;;4.65;2.60;;;20.20;86.10;;;;;;5081372;28;20104;-76
2022/06/14 00:54:53;;;;;;;3.33;2.95;;;20.50;85.20;;;;;;5068117;28;20024;-74
2022/06/14 00:57:32;;;;;;;3.70;2.78;;;20.40;85.10;;;;;;5086675;28;20036;-75
2022/06/14 01:00:11;;;;;;;3.80;3.22;;;20.60;87.00;;;;;;5062276;28;20031;-73
2022/06/14 01:02:46;;;;;;;3.20;2.72;;;20.70;84.20;;;;;;5082602;28;20036;-77
2022/06/14 01:06:05;;;;;;;4.53;3.22;;;20.60;84.70;;;;;;5070447;28;20028;-75
2022/06/14 01:08:17;;;;;;;4.25;3.00;;;20.70;86.90;;;;;;5065702;28;20047;-78
2022/06/14 01:10:47;;;;;;;4.95;2.90;;;21.40;84.20;;;;;;5061509;28;20063;-76
2022/06/14 01:13:17;;;;;;;4.82;3.10;;;21.50;83.50;;;;;;5072339;28;20528;-76
2022/06/14 01:15:45;;;;;;;3.78;2.67;;;21.60;83.80;;;;;;5070589;28;20353;-72
2022/06/14 01:18:15;;;;;;;4.72;3.42;;;21.50;84.00;;;;;;5072444;28;20020;-75
2022/06/14 01:20:43;;;;;;;5.72;2.97;;;22.00;84.20;;;;;;5074580;28;20032;-75
2022/06/14 01:23:15;;;;;;;3.72;2.60;;;21.90;82.00;;;;;;5081004;28;20028;-77
2022/06/14 01:25:46;;;;;;;3.80;2.65;;;21.80;82.20;;;;;;5065061;28;20071;-78
2022/06/14 01:28:17;;;;;;;3.47;2.67;;;21.80;82.20;;;;;;5067493;28;20029;-77
2022/06/14 01:30:48;;;;;;;4.78;2.38;;;21.50;83.30;;;;;;5067920;28;20043;-76
2022/06/14 01:33:24;;;;;;;3.08;1.88;;;21.70;81.90;;;;;;5083705;28;20047;-74
2022/06/14 01:36:02;;;;;;;3.35;2.15;;;21.70;83.50;;;;;;5068539;28;20103;-78
2022/06/14 01:38:30;;;;;;;3.45;2.30;;;22.10;82.40;;;;;;5062846;28;20498;-78
2022/06/14 01:41:27;;;;;;;3.47;2.47;;;22.20;81.40;;;;;;5069388;28;20486;-72
2022/06/14 01:44:16;;;;;;;2.85;2.35;;;22.20;82.10;;;;;;5073309;28;20025;-73
2022/06/14 01:47:03;;;;;;;3.60;2.30;;;22.90;81.70;;;;;;5086465;28;20114;-75
2022/06/14 01:52:40;;;;;;;3.47;2.67;;;23.50;80.40;;;;;;5072784;28;20071;-76
2022/06/14 01:55:21;;;;;;;4.35;1.83;;;23.30;78.10;;;;;;5074881;28;20032;-76
2022/06/14 01:58:09;;;;;;;3.15;2.15;;;23.10;79.10;;;;;;5076132;28;20025;-77
2022/06/14 02:01:08;;;;;;;4.10;1.85;;;23.10;79.20;;;;;;5055028;28;20433;-77
2022/06/14 02:07:24;;;;;;;4.63;2.50;;;23.50;78.00;;;;;;5064680;28;20187;-76
2022/06/14 02:10:14;;;;;;;2.57;1.80;;;23.20;78.70;;;;;;5054880;28;20391;-76
2022/06/14 02:13:06;;;;;;;3.15;1.75;;;23.40;79.50;;;;;;5073172;28;20020;-77
2022/06/14 02:15:48;;;;;;;5.47;2.15;;;23.60;78.60;;;;;;5068351;28;20097;-77
2022/06/14 02:18:21;;;;;;;3.58;2.92;;;23.30;79.20;;;;;;5069872;28;20913;-77
2022/06/14 02:20:54;;;;;;;6.63;2.13;;;23.30;78.50;;;;;;5052152;28;20082;-77
2022/06/14 02:23:24;;;;;;;3.03;1.92;;;23.50;78.10;;;;;;5052628;28;20059;-77
2022/06/14 02:26:26;;;;;;;2.38;1.83;;;23.20;79.10;;;;;;5071924;28;20039;-78
2022/06/14 02:29:21;;;;;;;4.45;1.75;;;22.60;79.60;;;;;;4989179;28;20034;-77
2022/06/14 02:32:06;;;;;;;7.25;2.40;;;22.30;79.80;;;;;;5051487;28;20139;-75
2022/06/14 02:34:45;;;;;;;3.17;2.17;;;22.40;82.80;;;;;;5072149;28;20481;-75
2022/06/14 02:37:27;;;;;;;3.38;1.48;;;22.90;79.90;;;;;;5058742;28;20386;-77
2022/06/14 02:40:13;;;;;;;2.97;1.80;;;23.30;79.80;;;;;;5073396;28;20029;-79
2022/06/14 02:42:52;;;;;;;;;;;22.80;78.80;;;;;;5087183;28;20035;-73
2022/06/14 02:45:34;;;;;;;2.58;2.10;;;21.90;80.80;;;;;;5066737;28;20338;-83
2022/06/14 02:48:26;;;;;;;2.50;1.55;;;21.80;81.00;;;;;;5083641;28;20101;-77
2022/06/14 02:51:06;;;;;;;3.03;1.65;;;21.50;80.40;;;;;;5069179;28;20058;-77
2022/06/14 02:54:05;;;;;;;3.28;2.55;;;21.20;81.20;;;;;;5066243;28;20021;-75
2022/06/14 02:56:43;;;;;;;3.55;1.65;;;21.20;83.00;;;;;;5086637;28;20036;-74
2022/06/14 02:59:27;;;;;;;4.07;1.77;;;21.50;82.20;;;;;;5071100;28;20024;-72
2022/06/14 03:02:09;;;;;;;3.58;2.08;;;21.80;81.60;;;;;;5070395;28;20355;-77
2022/06/14 03:04:56;;;;;;;3.05;1.55;;;21.40;81.30;;;;;;5066382;28;20035;-73
2022/06/14 03:07:37;;;;;;;4.00;2.20;;;20.90;82.30;;;;;;5064403;28;20029;-74
2022/06/14 03:10:05;;;;;;;3.13;1.35;;;20.50;84.10;;;;;;5083593;28;20494;-75
2022/06/14 03:12:50;;;;;;;5.75;1.60;;;20.40;84.20;;;;;;5070324;28;20036;-72
2022/06/14 03:15:31;;;;;;;4.70;1.58;;;20.40;83.80;;;;;;5065537;28;20042;-73
2022/06/14 03:18:44;;;;;;;2.67;1.13;;;20.40;83.80;;;;;;5077420;28;20469;-75
2022/06/14 03:21:26;;;;;;;2.75;1.02;;;19.90;85.10;;;;;;4988704;28;20037;-73
2022/06/14 03:24:11;;;;;;;1.63;1.23;;;19.60;85.50;;;;;;5054973;28;20050;-76
2022/06/14 03:27:04;;;;;;;1.80;1.00;;;19.60;87.10;;;;;;5082729;28;20088;-75
2022/06/14 03:29:44;;;;;;;2.63;1.67;;;19.60;85.80;;;;;;5065178;28;20049;-72
2022/06/14 03:32:27;;;;;;;2.20;1.20;;;19.20;86.70;;;;;;5069902;28;20056;-76
2022/06/14 03:35:07;;;;;;;3.63;0.95;;;18.90;87.20;;;;;;5070122;28;20071;-75
2022/06/14 03:37:35;;;;;;;3.47;1.08;;;18.60;88.30;;;;;;5073427;28;20016;-75
2022/06/14 03:40:09;;;;;;;1.30;1.00;;;18.20;89.40;;;;;;5057889;28;20546;-73
2022/06/14 03:42:37;;;;;;;1.00;0.82;;;17.80;90.20;;;;;;5080465;28;20058;-73
2022/06/14 03:45:08;;;;;;;2.10;1.40;;;17.60;90.50;;;;;;5081581;28;20039;-74
2022/06/14 03:47:36;;;;;;;3.80;1.10;;;17.30;90.70;;;;;;5081289;28;20032;-72
2022/06/14 03:50:08;;;;;;;8.48;0.82;;;17.10;91.00;;;;;;5061441;28;20056;-71
2022/06/14 03:53:04;;;;;;;1.85;0.80;;;17.10;91.40;;;;;;5066407;28;20123;-72
2022/06/14 03:55:59;;;;;;;3.67;0.52;;;17.00;91.00;;;;;;5075993;28;20032;-73
2022/06/14 03:58:47;;;;;;;1.33;0.50;;;17.00;91.40;;;;;;5055007;28;20025;-74
2022/06/14 04:01:21;;;;;;;1.42;0.60;;;16.90;91.90;;;;;;5075794;28;20099;-74
2022/06/14 04:04:07;;;;;;;0.98;0.50;;;16.80;91.60;;;;;;5082374;28;20024;-75
2022/06/14 04:06:50;;;;;;;0.73;0.43;;;16.70;91.70;;;;;;5064375;28;20431;-70
2022/06/14 04:09:54;;;;;;;0.77;0.30;;;16.70;91.60;;;;;;5064146;28;20047;-71
2022/06/14 04:12:34;;;;;;;2.40;0.40;;;16.70;91.80;;;;;;5067662;28;20035;-68
2022/06/14 04:15:24;;;;;;;1.55;0.30;;;16.70;91.50;;;;;;5062869;28;20115;-70
2022/06/14 04:18:35;;;;;;;0.57;0.40;;;16.70;91.50;;;;;;5070497;28;20081;-70
2022/06/14 04:21:24;;;;;;;7.82;0.73;;;16.60;91.60;;;;;;5074812;28;20368;-71
2022/06/14 04:24:19;;;;;;;7.00;0.50;;;16.60;91.80;;;;;;5075464;28;20024;-73
2022/06/14 04:26:54;;;;;;;0.65;0.55;;;16.60;92.10;;;;;;5064901;28;20023;-72
2022/06/14 04:29:30;;;;;;;1.40;0.53;;;16.60;91.60;;;;;;5071599;28;20032;-73
2022/06/14 04:32:01;;;;;;;1.08;0.57;;;16.60;92.10;;;;;;5074807;28;20029;-73
2022/06/14 04:34:43;;;;;;;0.75;0.28;;;16.50;92.10;;;;;;5069977;28;20024;-73
2022/06/14 04:37:24;;;;;;;2.45;1.05;;;16.40;92.10;;;;;;5071348;28;20031;-73
2022/06/14 04:40:02;;;;;;;0.32;0.20;;;16.40;92.10;;;;;;5072494;28;20454;-72
2022/06/14 04:42:46;;;;;;;0.57;0.30;;;16.40;92.10;;;;;;5089601;28;20086;-74
2022/06/14 04:45:25;;;;;;;0.30;0.20;;;16.50;92.10;;;;;;5079246;28;20024;-73
2022/06/14 04:48:24;;;;;;;0.50;0.30;;;16.40;92.50;;;;;;5089429;28;20117;-72
2022/06/14 04:51:33;;;;;;;0.65;0.13;;;16.40;91.80;;;;;;5050573;28;20679;-72
2022/06/14 04:54:06;;;;;;;1.77;0.17;;;16.40;91.70;;;;;;5054946;28;20076;-73
2022/06/14 04:56:51;;;;;;;0.98;0.30;;;16.40;91.70;;;;;;5069156;28;20394;-71
2022/06/14 04:59:30;;;;;;;2.13;0.38;;;16.40;91.60;;;;;;5068081;28;20137;-74
2022/06/14 05:02:35;;;;;;;0.43;0.15;;;16.50;92.10;;;;;;5067357;28;20017;-72
2022/06/14 05:05:15;;;;;;;2.42;0.38;;;16.50;92.00;;;;;;5051363;28;20044;-73
2022/06/14 05:07:51;;;;;;;0.28;0.28;;;16.50;91.90;;;;;;5074122;28;20825;-72
2022/06/14 05:10:45;;;;;;;2.80;0.40;;;16.40;91.90;;;;;;5069042;28;20028;-74
2022/06/14 05:13:23;;;;;;;2.70;0.50;;;16.40;92.00;;;;;;5065755;28;20059;-75
2022/06/14 05:16:14;;;;;;;1.40;0.30;;;16.40;92.30;;;;;;5069133;28;20387;-75
2022/06/14 05:18:57;;;;;;;1.15;0.35;;;16.40;92.10;;;;;;5062399;28;20371;-74
2022/06/14 05:21:50;;;;;;;0.70;0.68;;;16.30;91.90;;;;;;5067399;28;20035;-73
2022/06/14 05:24:18;;;;;;;1.25;0.30;;;16.40;92.10;;;;;;5070023;28;20096;-74
2022/06/14 05:26:58;;;;;;;2.20;0.63;;;16.30;92.20;;;;;;5074490;28;20025;-72
2022/06/14 05:29:37;;;;;;;0.90;0.20;;;16.30;92.10;;;;;;5072637;28;20513;-73
2022/06/14 05:32:34;;;;;;;2.47;0.63;;;16.30;92.60;;;;;;5074533;28;20111;-69
2022/06/14 05:35:24;;;;;;;0.95;0.30;;;16.30;92.80;;;;;;5054629;28;20104;-74
2022/06/14 05:37:59;;;;;;;2.75;0.45;;;16.30;92.40;;;;;;5066008;28;20421;-74
2022/06/14 05:40:35;;;;;;;0.77;0.30;;;16.20;92.40;;;;;;5073772;28;20020;-74
2022/06/14 05:43:27;;;;;;;0.82;0.30;;;16.20;92.70;;;;;;5083025;28;20058;-76
2022/06/14 05:46:03;;;;;;;1.60;0.52;;;16.10;92.70;;;;;;5066665;28;20055;-74
2022/06/14 05:48:39;;;;;;;1.00;0.38;;;16.10;93.00;;;;;;5069437;28;20332;-71
2022/06/14 05:51:11;;;;;;;1.85;0.45;;;16.20;92.80;;;;;;5077462;28;20146;-72
2022/06/14 05:53:47;;;;;;;0.43;0.20;;;16.20;92.70;;;;;;5071805;28;20021;-75
2022/06/14 05:56:31;;;;;;;0.45;0.20;;;16.20;93.00;;;;;;5071155;28;20373;-71
2022/06/14 05:59:15;;;;;;;1.27;0.30;;;16.10;92.70;;;;;;5072103;28;20035;-73
2022/06/14 06:01:52;;;;;;;0.40;0.20;;;16.20;92.60;;;;;;5076359;28;20501;-73
2022/06/14 06:04:49;;;;;;;0.60;0.20;;;16.20;92.80;;;;;;5070692;28;20081;-73
2022/06/14 06:07:21;;;;;;;0.93;0.30;;;16.20;92.80;;;;;;5072042;28;20040;-73
2022/06/14 06:10:20;;;;;;;0.40;0.17;;;16.30;92.80;;;;;;5070125;28;20039;-71
2022/06/14 06:12:56;;;;;;;0.43;0.30;;;16.30;92.80;;;;;;5072325;28;20096;-73
2022/06/14 06:15:32;;;;;;;0.45;0.20;;;16.40;92.90;;;;;;5064240;28;20651;-72
2022/06/14 06:18:09;;;;;;;1.85;0.22;;;16.50;93.00;;;;;;5073552;28;20024;-72
2022/06/14 06:20:48;;;;;;;1.75;0.20;;;16.40;93.40;;;;;;5068329;28;20120;-73
2022/06/14 06:23:24;;;;;;;1.40;0.30;;;16.50;92.90;;;;;;5070122;28;20035;-69
2022/06/14 06:25:54;;;;;;;0.32;0.25;;;16.40;92.70;;;;;;5064845;28;20040;-69
2022/06/14 06:28:31;;;;;;;2.83;0.30;;;16.40;92.80;;;;;;5070985;28;20047;-73
2022/06/14 06:31:05;;;;;;;1.10;0.15;;;16.30;92.90;;;;;;5071007;28;20059;-73
2022/06/14 06:33:36;;;;;;;0.52;0.20;;;16.20;92.90;;;;;;5070172;28;20025;-73
2022/06/14 06:36:18;;;;;;;0.75;0.38;;;16.10;93.20;;;;;;5070442;28;20020;-75
2022/06/14 06:39:12;;;;;;;0.35;0.20;;;15.90;93.50;;;;;;5069703;28;20028;-72
2022/06/14 06:41:50;;;;;;;0.47;0.30;;;15.70;93.80;;;;;;5068667;28;20028;-73
2022/06/14 06:44:33;;;;;;;0.45;0.30;;;15.50;94.10;;;;;;5077385;28;20038;-77
2022/06/14 06:47:28;;;;;;;0.85;0.30;;;15.20;94.50;;;;;;5080197;28;20425;-78
2022/06/14 06:50:08;;;;;;;1.30;0.20;;;15.00;94.80;;;;;;5066619;28;20040;-78
2022/06/14 06:52:53;;;;;;;1.15;0.40;;;14.80;95.10;;;;;;5081687;28;20116;-79
2022/06/14 06:55:34;;;;;;;0.45;0.22;;;14.50;95.40;;;;;;5052554;28;20490;-76
2022/06/14 06:58:08;;;;;;;1.55;0.60;;;14.30;95.80;;;;;;5082688;28;20051;-77
2022/06/14 07:00:39;;;;;;;1.20;0.47;;;14.10;96.20;;;;;;5086287;28;20039;-77
2022/06/14 07:03:27;;;;;;;2.00;0.57;;;13.90;96.60;;;;;;5091937;28;20091;-77
2022/06/14 07:06:00;;;;;;;0.82;0.30;;;13.80;96.80;;;;;;5049546;28;20029;-76
2022/06/14 07:09:07;;;;;;;1.45;0.52;;;13.70;97.10;;;;;;5052787;28;20039;-77
2022/06/14 07:12:03;;;;;;;1.52;0.57;;;13.50;97.20;;;;;;5075079;28;20051;-75
2022/06/14 07:14:53;;;;;;;3.33;0.75;;;13.40;97.40;;;;;;5057567;28;20040;-78
2022/06/14 07:17:46;;;;;;;1.40;0.80;;;13.20;97.60;;;;;;5066325;28;20452;-78
2022/06/14 07:20:27;;;;;;;1.85;0.70;;;13.10;97.90;;;;;;5069757;28;20481;-75
2022/06/14 07:23:26;;;;;;;1.60;0.65;;;13.00;98.20;;;;;;5069535;28;20032;-78
2022/06/14 07:26:09;;;;;;;0.95;0.68;;;12.90;98.30;;;;;;5077975;28;20020;-76
2022/06/14 07:28:54;;;;;;;1.38;0.80;;;12.70;98.50;;;;;;5074348;28;20395;-75
2022/06/14 07:31:28;;;;;;;1.38;1.02;;;12.70;98.60;;;;;;5078848;28;20472;-81
2022/06/14 07:33:57;;;;;;;1.42;0.95;;;12.60;98.80;;;;;;5079336;28;20032;-76
2022/06/14 07:36:59;;;;;;;2.70;1.30;;;12.50;99.00;;;;;;5073449;28;20474;-77
2022/06/14 07:39:45;;;;;;;1.20;0.90;;;12.40;99.10;;;;;;5028215;28;20037;-80
2022/06/14 07:42:43;;;;;;;2.00;1.00;;;12.30;99.20;;;;;;5072811;28;20494;-73
2022/06/14 07:45:23;;;;;;;1.67;1.15;;;12.20;99.30;;;;;;5066844;28;20210;-75
2022/06/14 07:48:24;;;;;;;3.47;1.75;;;12.10;99.60;;;;;;5068675;28;20047;-77
2022/06/14 07:51:09;;;;;;;3.10;1.45;;;12.00;99.90;;;;;;5064465;28;20462;-78
2022/06/14 07:53:41;;;;;;;2.03;1.77;;;11.90;99.90;;;;;;5073172;28;20049;-74
2022/06/14 07:56:13;;;;;;;2.42;1.98;;;11.80;99.90;;;;;;5064839;28;20382;-75
2022/06/14 07:58:50;;;;;;;4.38;2.17;;;11.70;99.90;;;;;;5064290;28;20028;-73
2022/06/14 08:01:48;;;;;;;2.58;1.77;;;11.70;99.90;;;;;;5062967;28;20024;-75
2022/06/14 08:04:21;;;;;;;3.22;2.08;;;11.70;99.90;;;;;;5069653;28;20024;-74
2022/06/14 08:06:59;;;;;;;2.60;1.83;;;11.60;99.90;;;;;;5071365;28;20061;-78
2022/06/14 08:09:40;;;;;;;4.85;2.70;;;11.50;99.90;;;;;;5068296;28;20679;-77
2022/06/14 08:12:29;;;;;;;5.28;2.63;;;11.50;99.90;;;;;;5073990;28;20391;-75
2022/06/14 08:15:10;;;;;;;4.18;2.60;;;11.40;99.90;;;;;;5064006;28;20490;-73
2022/06/14 08:18:00;;;;;;;6.20;3.20;;;11.30;99.90;;;;;;5070552;28;20572;-75
2022/06/14 08:20:36;;;;;;;7.43;4.07;;;11.20;99.90;;;;;;5064922;28;20032;-76
2022/06/14 08:23:19;;;;;;;7.43;4.45;;;11.20;99.90;;;;;;5063848;28;20059;-72
2022/06/14 08:25:49;;;;;;;8.80;4.05;;;11.10;99.90;;;;;;5068167;28;20027;-75
2022/06/14 08:28:43;;;;;;;9.32;4.60;;;11.10;99.90;;;;;;5066009;28;20106;-76
2022/06/14 08:31:27;;;;;;;6.90;4.03;;;11.00;99.90;;;;;;5062808;28;20055;-72
2022/06/14 08:34:05;;;;;;;4.57;3.47;;;11.00;99.90;;;;;;5076579;28;20024;-76
2022/06/14 08:36:52;;;;;;;4.63;3.30;;;10.90;99.90;;;;;;5077873;28;20036;-73
2022/06/14 08:39:30;;;;;;;7.32;4.03;;;10.90;99.90;;;;;;5053817;28;20025;-74
2022/06/14 08:42:17;;;;;;;5.80;3.50;;;10.80;99.90;;;;;;5066648;28;20024;-72
2022/06/14 08:44:57;;;;;;;13.60;5.10;;;10.80;99.90;;;;;;5068437;28;20085;-77
2022/06/14 08:48:04;;;;;;;4.82;3.28;;;10.70;99.90;;;;;;5072677;28;20024;-79
2022/06/14 08:50:38;;;;;;;9.52;4.95;;;10.70;99.90;;;;;;5070077;28;20079;-78
2022/06/14 08:53:18;;;;;;;8.68;5.07;;;10.60;99.90;;;;;;5066439;28;20060;-76
2022/06/14 08:56:16;;;;;;;9.98;4.60;;;10.50;99.90;;;;;;5048990;28;20048;-77
2022/06/14 08:58:49;;;;;;;8.73;4.63;;;10.50;99.90;;;;;;5058067;28;20074;-76
2022/06/14 09:01:34;;;;;;;7.20;4.60;;;10.40;99.90;;;;;;5068152;28;20970;-74
2022/06/14 09:04:52;;;;;;;11.60;5.03;;;10.30;99.90;;;;;;5070612;28;20479;-75
2022/06/14 09:07:22;;;;;;;10.38;4.63;;;10.20;99.90;;;;;;5028968;28;20040;-74
2022/06/14 09:09:59;;;;;;;11.45;5.15;;;10.10;99.90;;;;;;5070230;28;20039;-73
2022/06/14 09:12:43;;;;;;;10.50;5.25;;;10.10;99.90;;;;;;5075568;28;20036;-75
2022/06/14 09:15:34;;;;;;;15.02;5.82;;;10.10;99.90;;;;;;5067597;28;20030;-76
2022/06/14 09:18:30;;;;;;;8.82;4.65;;;10.00;99.90;;;;;;5087173;28;20516;-72
2022/06/14 09:21:13;;;;;;;10.00;4.45;;;10.00;99.90;;;;;;5046363;28;20127;-75
2022/06/14 09:23:58;;;;;;;8.27;4.35;;;9.90;99.90;;;;;;5082784;28;20017;-75
2022/06/14 09:26:31;;;;;;;8.67;4.30;;;9.80;99.90;;;;;;5051183;28;20060;-70
2022/06/14 09:29:14;;;;;;;9.82;4.90;;;9.80;99.90;;;;;;5066324;28;20052;-74
2022/06/14 09:32:19;;;;;;;5.82;3.78;;;9.80;99.90;;;;;;5078649;28;20036;-78
2022/06/14 09:35:15;;;;;;;8.02;4.85;;;9.70;99.90;;;;;;5063859;28;20129;-76
2022/06/14 09:38:12;;;;;;;9.13;5.32;;;9.60;99.90;;;;;;5063643;28;20032;-75
2022/06/14 09:40:55;;;;;;;10.63;6.13;;;9.50;99.90;;;;;;5069048;28;20046;-77
2022/06/14 09:43:40;;;;;;;8.57;5.60;;;9.50;99.90;;;;;;5085717;28;20928;-78
2022/06/14 09:46:29;;;;;;;9.48;5.07;;;9.50;99.90;;;;;;5067660;28;20047;-75
2022/06/14 09:49:35;;;;;;;8.77;4.93;;;9.40;99.90;;;;;;5066446;28;20048;-76
2022/06/14 09:52:21;;;;;;;8.98;5.43;;;9.30;99.90;;;;;;5022678;28;20149;-75
2022/06/14 09:55:02;;;;;;;15.27;7.05;;;9.30;99.90;;;;;;5076692;28;20558;-73
2022/06/14 09:57:48;;;;;;;13.23;6.57;;;9.20;99.90;;;;;;5073336;28;20379;-72
2022/06/14 10:00:21;;;;;;;7.97;5.77;;;9.20;99.90;;;;;;5087173;28;20038;-79
2022/06/14 10:03:09;;;;;;;9.05;5.68;;;9.10;99.90;;;;;;5074459;28;20016;-76
2022/06/14 10:05:58;;;;;;;5.78;4.05;;;9.10;99.90;;;;;;5082418;28;20033;-76
2022/06/14 10:08:35;;;;;;;9.85;3.83;;;9.00;99.90;;;;;;5087355;28;20046;-76
2022/06/14 10:11:21;;;;;;;7.53;4.93;;;9.10;99.90;;;;;;5075508;28;20040;-76
2022/06/14 10:13:55;;;;;;;12.35;6.60;;;9.10;99.90;;;;;;5078080;28;20020;-76
2022/06/14 10:17:07;;;;;;;6.75;4.47;;;9.00;99.90;;;;;;5081386;28;20378;-74
2022/06/14 10:19:53;;;;;;;7.97;5.10;;;8.90;99.90;;;;;;5077616;28;20032;-75
2022/06/14 10:22:20;;;;;;;;;;;8.90;99.90;;;;;;5085334;28;20047;-77
2022/06/14 10:25:10;;;;;;;5.25;4.47;;;8.80;99.90;;;;;;5066659;28;20311;-78
2022/06/14 10:28:27;;;;;;;5.13;3.92;;;8.80;99.90;;;;;;5086599;28;20397;-76
2022/06/14 10:31:14;;;;;;;6.57;3.33;;;8.70;99.90;;;;;;4989641;28;20044;-79
2022/06/14 10:33:43;;;;;;;;;;;8.60;99.90;;;;;;5082836;28;20033;-74
2022/06/14 10:36:33;;;;;;;9.70;4.40;;;8.60;99.90;;;;;;5078133;28;19905;-74
2022/06/14 10:39:28;;;;;;;7.57;4.38;;;8.60;99.90;;;;;;5061289;28;20032;-75
2022/06/14 10:42:29;;;;;;;17.35;8.80;;;8.60;99.90;;;;;;5049800;28;20028;-75
2022/06/14 10:45:20;;;;;;;14.85;9.25;;;8.70;99.90;;;;;;5077834;28;20047;-76
2022/06/14 10:48:19;;;;;;;10.38;7.00;;;8.70;99.90;;;;;;5094462;28;20057;-76
2022/06/14 10:50:55;;;;;;;13.07;8.13;;;8.70;99.90;;;;;;5083557;28;20044;-75
2022/06/14 10:53:45;;;;;;;14.77;8.18;;;8.50;99.90;;;;;;5074915;28;20041;-75
2022/06/14 10:56:18;;;;;;;14.25;6.80;;;8.40;99.90;;;;;;5090983;28;20109;-75
2022/06/14 10:59:04;;;;;;;12.70;8.38;;;8.30;99.90;;;;;;5083904;28;20027;-74
2022/06/14 11:01:48;;;;;;;13.93;10.75;;;8.20;99.90;;;;;;5069079;28;20143;-73
2022/06/14 11:04:45;;;;;;;10.52;8.00;;;8.20;99.90;;;;;;5068211;28;20092;-75
2022/06/14 11:07:26;;;;;;;10.38;8.02;;;8.20;99.90;;;;;;5055953;28;20147;-73
2022/06/14 11:10:08;;;;;;;11.52;8.48;;;8.10;99.90;;;;;;5069863;28;20484;-76
2022/06/14 11:12:54;;;;;;;10.68;7.15;;;8.00;99.90;;;;;;5058530;28;20042;-75
2022/06/14 11:15:44;;;;;;;11.35;7.90;;;7.90;99.90;;;;;;5072078;28;20040;-76
2022/06/14 11:18:35;;;;;;;12.57;8.80;;;7.80;99.90;;;;;;5077979;28;20035;-75
2022/06/14 11:21:08;;;;;;;14.45;11.00;;;7.70;99.90;;;;;;5083019;28;20363;-75
2022/06/14 11:23:44;;;;;;;18.67;11.68;;;7.70;99.90;;;;;;5067694;28;20033;-74
2022/06/14 11:26:48;;;;;;;16.30;11.63;;;7.70;99.90;;;;;;5057437;28;20035;-74
2022/06/14 11:30:06;;;;;;;15.88;9.75;;;7.70;99.90;;;;;;5063393;28;20032;-75
2022/06/14 11:32:51;;;;;;;11.93;7.75;;;7.70;99.90;;;;;;4986266;28;20041;-75
2022/06/14 11:35:31;;;;;;;10.50;6.32;;;7.80;99.90;;;;;;5070009;28;20036;-75
2022/06/14 11:38:29;;;;;;;10.07;6.35;;;7.90;99.90;;;;;;5090119;28;20395;-75
2022/06/14 11:41:04;;;;;;;10.75;6.57;;;8.00;99.90;;;;;;5074043;28;20489;-74
2022/06/14 11:43:56;;;;;;;11.38;6.90;;;8.00;99.90;;;;;;5060897;28;20064;-75
2022/06/14 11:46:42;;;;;;;9.13;5.53;;;7.90;99.90;;;;;;5082627;28;20328;-74
2022/06/14 11:49:30;;;;;;;10.17;6.73;;;7.90;99.90;;;;;;5076077;28;20123;-75
2022/06/14 11:52:07;;;;;;;8.30;5.57;;;7.80;99.90;;;;;;5067465;28;20113;-76
2022/06/14 11:54:50;;;;;;;8.98;5.45;;;7.70;99.90;;;;;;5067497;28;20119;-75
2022/06/14 11:57:26;;;;;;;8.02;5.72;;;7.60;99.90;;;;;;5090505;28;20085;-75
2022/06/14 11:59:53;;;;;;;;;;;7.60;99.90;;;;;;5074902;28;20366;-75
2022/06/14 12:02:33;;;;;;;7.55;4.90;;;7.50;99.90;;;;;;5078347;28;19912;-75
2022/06/14 12:05:18;;;;;;;6.78;5.32;;;7.40;99.90;;;;;;5076835;28;20390;-75
2022/06/14 12:08:00;;;;;;;8.05;4.93;;;7.40;99.90;;;;;;5073577;28;20031;-75
2022/06/14 12:10:47;;;;;;;16.20;9.45;;;7.30;99.90;;;;;;5067784;28;20123;-74
2022/06/14 12:13:15;;;;;;;21.27;13.52;;;7.30;99.90;;;;;;5060052;28;20032;-74
2022/06/14 12:15:45;;;;;;;12.02;8.90;;;7.20;99.90;;;;;;5065869;28;20094;-75
2022/06/14 12:18:15;;;;;;;12.95;9.02;;;7.20;99.90;;;;;;5058107;28;20016;-74
2022/06/14 12:20:54;;;;;;;15.80;9.60;;;7.20;99.90;;;;;;5057290;28;20033;-74
2022/06/14 12:23:27;;;;;;;16.92;10.25;;;7.00;99.90;;;;;;5056417;28;20035;-74
2022/06/14 12:28:49;;;;;;;10.10;7.32;;;6.90;99.90;;;;;;5071903;28;20090;-74
2022/06/14 12:31:52;;;;;;;10.63;7.50;;;6.90;99.90;;;;;;5071210;28;20047;-75
2022/06/14 12:34:28;;;;;;;14.45;7.70;;;6.80;99.90;;;;;;5069547;28;20202;-74
2022/06/14 12:37:23;;;;;;;8.70;6.65;;;6.70;99.90;;;;;;5069655;28;20032;-74
2022/06/14 12:40:16;;;;;;;12.20;8.07;;;6.60;99.90;;;;;;5060792;28;20032;-74
2022/06/14 12:43:04;;;;;;;12.05;7.18;;;6.60;99.90;;;;;;5071650;28;20516;-77
2022/06/14 12:45:44;;;;;;;12.55;7.95;;;6.40;99.90;;;;;;5055882;28;20093;-78
2022/06/14 12:48:42;;;;;;;13.50;7.97;;;6.40;99.90;;;;;;5070145;28;20035;-72
2022/06/14 12:51:10;;;;;;;15.35;8.40;;;6.30;99.90;;;;;;5069332;28;20149;-74
2022/06/14 12:53:49;;;;;;;15.77;8.13;;;6.30;99.90;;;;;;5067870;28;20055;-73
2022/06/14 12:56:28;;;;;;;10.32;6.90;;;6.30;99.90;;;;;;5075176;28;20087;-74
2022/06/14 12:59:17;;;;;;;14.20;8.30;;;6.30;99.90;;;;;;5069927;28;20097;-74
2022/06/14 13:02:17;;;;;;;13.23;8.25;;;6.30;99.90;;;;;;5060048;28;20043;-73
2022/06/14 13:04:59;;;;;;;17.55;9.80;;;6.30;99.90;;;;;;5053699;28;20060;-75
2022/06/14 13:07:46;;;;;;;15.88;9.90;;;6.40;99.90;;;;;;5067908;28;20036;-73
2022/06/14 13:10:56;;;;;;;15.07;8.48;;;6.50;99.90;;;;;;5062231;28;20036;-74
2022/06/14 13:14:00;;;;;;;13.90;8.98;;;6.40;99.90;;;;;;5057466;28;20036;-74
2022/06/14 13:16:31;;;;;;;19.85;8.82;;;6.40;99.90;;;;;;5058543;28;20387;-74
2022/06/14 13:19:09;;;;;;;14.88;8.93;;;6.30;99.90;;;;;;5061641;28;20055;-74
2022/06/14 13:21:43;;;;;;;14.98;8.85;;;6.30;99.90;;;;;;5059558;28;20032;-74
2022/06/14 13:24:26;;;;;;;16.00;9.90;;;6.20;99.90;;;;;;5070356;28;20040;-75
2022/06/14 13:27:18;;;;;;;14.25;9.10;;;6.20;99.90;;;;;;5058647;28;20032;-77
2022/06/14 13:29:56;;;;;;;14.85;10.07;;;6.20;99.90;;;;;;5066242;28;20032;-74
2022/06/14 13:32:31;;;;;;;14.07;10.13;;;6.30;99.90;;;;;;5070362;28;20029;-74
2022/06/14 13:35:29;;;;;;;14.80;9.13;;;6.30;99.90;;;;;;5067946;28;20047;-73
2022/06/14 13:38:17;;;;;;;11.05;8.13;;;6.20;99.90;;;;;;5057031;28;20062;-73
2022/06/14 13:40:51;;;;;;;12.23;8.43;;;6.20;99.90;;;;;;5069029;28;20394;-73
2022/06/14 13:43:18;;;;;;;13.75;8.82;;;6.10;99.90;;;;;;5067068;28;20016;-73
2022/06/14 13:46:08;;;;;;;12.38;7.93;;;6.10;99.90;;;;;;5089783;28;20028;-73
2022/06/14 13:48:35;;;;;;;9.52;7.30;;;6.00;99.90;;;;;;5068618;28;20052;-74
2022/06/14 13:51:36;;;;;;;12.25;7.25;;;6.00;99.90;;;;;;5062770;28;20129;-74
2022/06/14 13:54:15;;;;;;;8.73;5.85;;;6.00;99.90;;;;;;5061662;28;20107;-74
2022/06/14 13:56:45;;;;;;;15.05;7.85;;;5.90;99.90;;;;;;5068474;28;20124;-75
2022/06/14 13:59:18;;;;;;;13.85;8.90;;;5.90;99.90;;;;;;5067831;28;20017;-75
2022/06/14 14:02:05;;;;;;;12.48;9.45;;;5.90;99.90;;;;;;5052245;28;20040;-75
2022/06/14 14:05:03;;;;;;;12.05;8.27;;;5.80;99.90;;;;;;5059610;28;20391;-75
2022/06/14 14:07:52;;;;;;;13.70;8.48;;;5.80;99.90;;;;;;5056569;28;20075;-75
2022/06/14 14:10:29;;;;;;;13.57;8.13;;;5.70;99.90;;;;;;5066705;28;20071;-75
2022/06/14 14:13:24;;;;;;;13.85;7.50;;;5.60;99.90;;;;;;5071130;28;20025;-75
2022/06/14 14:16:02;;;;;;;11.50;6.85;;;5.60;99.90;;;;;;5070462;28;20037;-74
2022/06/14 14:18:50;;;;;;;11.80;7.53;;;5.60;99.90;;;;;;5053223;28;20407;-75